sensor_id;sensor_type;location;lat;lon;timestamp;P1;durP1;ratioP1;P2;durP2;ratioP2
59907;SDS011;61804;54.926;73.496;2023-04-25T00:00:19;4.85;;;2.42;;
59907;SDS011;61804;54.926;73.496;2023-04-25T00:02:48;3.85;;;1.98;;
59907;SDS011;61804;54.926;73.496;2023-04-25T00:05:15;2.97;;;1.83;;
59907;SDS011;61804;54.926;73.496;2023-04-25T00:07:48;4.03;;;2.20;;
59907;SDS011;61804;54.926;73.496;2023-04-25T00:10:16;5.38;;;1.67;;
59907;SDS011;61804;54.926;73.496;2023-04-25T00:12:44;3.53;;;2.17;;
59907;SDS011;61804;54.926;73.496;2023-04-25T00:15:12;6.85;;;3.47;;
59907;SDS011;61804;54.926;73.496;2023-04-25T00:17:49;7.57;;;4.53;;
59907;SDS011;61804;54.926;73.496;2023-04-25T00:20:22;8.75;;;6.47;;
59907;SDS011;61804;54.926;73.496;2023-04-25T00:22:51;10.82;;;4.88;;
59907;SDS011;61804;54.926;73.496;2023-04-25T00:25:32;4.90;;;2.72;;
59907;SDS011;61804;54.926;73.496;2023-04-25T00:27:59;5.43;;;3.53;;
59907;SDS011;61804;54.926;73.496;2023-04-25T00:30:27;5.85;;;3.60;;
59907;SDS011;61804;54.926;73.496;2023-04-25T00:32:54;7.18;;;4.85;;
59907;SDS011;61804;54.926;73.496;2023-04-25T00:35:22;9.25;;;6.43;;
59907;SDS011;61804;54.926;73.496;2023-04-25T00:37:49;6.95;;;5.15;;
59907;SDS011;61804;54.926;73.496;2023-04-25T00:40:18;7.10;;;2.88;;
59907;SDS011;61804;54.926;73.496;2023-04-25T00:42:46;7.40;;;5.07;;
59907;SDS011;61804;54.926;73.496;2023-04-25T00:45:14;6.45;;;3.30;;
59907;SDS011;61804;54.926;73.496;2023-04-25T00:47:42;6.80;;;4.25;;
59907;SDS011;61804;54.926;73.496;2023-04-25T00:50:09;7.60;;;3.40;;
59907;SDS011;61804;54.926;73.496;2023-04-25T00:52:38;7.60;;;2.90;;
59907;SDS011;61804;54.926;73.496;2023-04-25T00:55:07;12.80;;;3.67;;
59907;SDS011;61804;54.926;73.496;2023-04-25T00:57:35;3.97;;;2.30;;
59907;SDS011;61804;54.926;73.496;2023-04-25T01:00:04;2.85;;;2.03;;
59907;SDS011;61804;54.926;73.496;2023-04-25T01:02:33;5.72;;;2.53;;
59907;SDS011;61804;54.926;73.496;2023-04-25T01:05:01;4.93;;;2.67;;
59907;SDS011;61804;54.926;73.496;2023-04-25T01:07:28;8.98;;;2.65;;
59907;SDS011;61804;54.926;73.496;2023-04-25T01:09:56;5.63;;;2.58;;
59907;SDS011;61804;54.926;73.496;2023-04-25T01:12:35;4.18;;;2.13;;
59907;SDS011;61804;54.926;73.496;2023-04-25T01:15:02;5.60;;;2.40;;
59907;SDS011;61804;54.926;73.496;2023-04-25T01:17:34;3.97;;;2.22;;
59907;SDS011;61804;54.926;73.496;2023-04-25T01:20:12;3.53;;;1.67;;
59907;SDS011;61804;54.926;73.496;2023-04-25T01:22:50;5.45;;;2.97;;
59907;SDS011;61804;54.926;73.496;2023-04-25T01:25:19;4.20;;;2.10;;
59907;SDS011;61804;54.926;73.496;2023-04-25T01:27:46;4.55;;;3.33;;
59907;SDS011;61804;54.926;73.496;2023-04-25T01:30:14;5.18;;;2.40;;
59907;SDS011;61804;54.926;73.496;2023-04-25T01:32:43;5.20;;;2.60;;
59907;SDS011;61804;54.926;73.496;2023-04-25T01:35:16;4.93;;;2.80;;
59907;SDS011;61804;54.926;73.496;2023-04-25T01:37:45;30.92;;;3.03;;
59907;SDS011;61804;54.926;73.496;2023-04-25T01:40:18;4.82;;;3.03;;
59907;SDS011;61804;54.926;73.496;2023-04-25T01:42:48;9.57;;;2.17;;
59907;SDS011;61804;54.926;73.496;2023-04-25T01:45:16;2.95;;;1.80;;
59907;SDS011;61804;54.926;73.496;2023-04-25T01:47:45;3.60;;;2.05;;
59907;SDS011;61804;54.926;73.496;2023-04-25T01:50:16;0.93;;;0.73;;
59907;SDS011;61804;54.926;73.496;2023-04-25T01:52:54;5.13;;;1.60;;
59907;SDS011;61804;54.926;73.496;2023-04-25T01:55:22;3.47;;;2.00;;
59907;SDS011;61804;54.926;73.496;2023-04-25T01:58:03;63.63;;;35.22;;
59907;SDS011;61804;54.926;73.496;2023-04-25T02:00:58;8.82;;;3.38;;
59907;SDS011;61804;54.926;73.496;2023-04-25T02:03:37;5.32;;;2.38;;
59907;SDS011;61804;54.926;73.496;2023-04-25T02:06:18;2.38;;;2.08;;
59907;SDS011;61804;54.926;73.496;2023-04-25T02:08:52;3.55;;;3.22;;
59907;SDS011;61804;54.926;73.496;2023-04-25T02:11:19;3.38;;;2.15;;
59907;SDS011;61804;54.926;73.496;2023-04-25T02:14:01;6.97;;;3.15;;
59907;SDS011;61804;54.926;73.496;2023-04-25T02:16:52;5.22;;;2.92;;
59907;SDS011;61804;54.926;73.496;2023-04-25T02:19:21;7.65;;;3.90;;
59907;SDS011;61804;54.926;73.496;2023-04-25T02:21:48;3.40;;;2.28;;
59907;SDS011;61804;54.926;73.496;2023-04-25T02:24:16;7.22;;;5.95;;
59907;SDS011;61804;54.926;73.496;2023-04-25T02:26:43;15.25;;;6.18;;
59907;SDS011;61804;54.926;73.496;2023-04-25T02:29:12;3.75;;;3.15;;
59907;SDS011;61804;54.926;73.496;2023-04-25T02:31:39;3.95;;;2.22;;
59907;SDS011;61804;54.926;73.496;2023-04-25T02:34:09;5.53;;;3.22;;
59907;SDS011;61804;54.926;73.496;2023-04-25T02:36:38;5.22;;;3.17;;
59907;SDS011;61804;54.926;73.496;2023-04-25T02:39:17;10.27;;;2.03;;
59907;SDS011;61804;54.926;73.496;2023-04-25T02:41:45;5.28;;;2.05;;
59907;SDS011;61804;54.926;73.496;2023-04-25T02:44:13;1.67;;;1.48;;
59907;SDS011;61804;54.926;73.496;2023-04-25T02:46:44;1.42;;;1.30;;
59907;SDS011;61804;54.926;73.496;2023-04-25T02:49:12;2.58;;;1.73;;
59907;SDS011;61804;54.926;73.496;2023-04-25T02:51:39;3.13;;;1.77;;
59907;SDS011;61804;54.926;73.496;2023-04-25T02:54:07;8.80;;;3.97;;
59907;SDS011;61804;54.926;73.496;2023-04-25T02:56:39;3.95;;;2.35;;
59907;SDS011;61804;54.926;73.496;2023-04-25T02:59:12;3.03;;;2.05;;
59907;SDS011;61804;54.926;73.496;2023-04-25T03:01:39;3.00;;;2.28;;
59907;SDS011;61804;54.926;73.496;2023-04-25T03:04:12;2.53;;;1.55;;
59907;SDS011;61804;54.926;73.496;2023-04-25T03:06:39;2.15;;;1.60;;
59907;SDS011;61804;54.926;73.496;2023-04-25T03:09:12;2.75;;;1.38;;
59907;SDS011;61804;54.926;73.496;2023-04-25T03:11:39;3.90;;;1.95;;
59907;SDS011;61804;54.926;73.496;2023-04-25T03:14:17;5.38;;;2.50;;
59907;SDS011;61804;54.926;73.496;2023-04-25T03:16:46;5.20;;;2.10;;
59907;SDS011;61804;54.926;73.496;2023-04-25T03:19:23;4.90;;;2.83;;
59907;SDS011;61804;54.926;73.496;2023-04-25T03:21:54;4.07;;;2.55;;
59907;SDS011;61804;54.926;73.496;2023-04-25T03:24:24;9.00;;;4.22;;
59907;SDS011;61804;54.926;73.496;2023-04-25T03:26:53;18.77;;;3.53;;
59907;SDS011;61804;54.926;73.496;2023-04-25T03:29:20;1.73;;;1.63;;
59907;SDS011;61804;54.926;73.496;2023-04-25T03:31:53;6.35;;;1.55;;
59907;SDS011;61804;54.926;73.496;2023-04-25T03:34:21;4.65;;;2.25;;
59907;SDS011;61804;54.926;73.496;2023-04-25T03:36:54;3.92;;;2.67;;
59907;SDS011;61804;54.926;73.496;2023-04-25T03:39:22;2.38;;;1.75;;
59907;SDS011;61804;54.926;73.496;2023-04-25T03:41:53;3.72;;;2.55;;
59907;SDS011;61804;54.926;73.496;2023-04-25T03:44:22;2.42;;;2.03;;
59907;SDS011;61804;54.926;73.496;2023-04-25T03:46:51;1.55;;;1.42;;
59907;SDS011;61804;54.926;73.496;2023-04-25T03:49:19;1.60;;;1.02;;
59907;SDS011;61804;54.926;73.496;2023-04-25T03:52:12;9.50;;;1.90;;
59907;SDS011;61804;54.926;73.496;2023-04-25T03:54:41;3.85;;;1.98;;
59907;SDS011;61804;54.926;73.496;2023-04-25T03:57:15;1.70;;;1.48;;
59907;SDS011;61804;54.926;73.496;2023-04-25T03:59:43;2.30;;;1.30;;
59907;SDS011;61804;54.926;73.496;2023-04-25T04:02:13;8.60;;;3.65;;
59907;SDS011;61804;54.926;73.496;2023-04-25T04:04:41;1.10;;;1.00;;
59907;SDS011;61804;54.926;73.496;2023-04-25T04:07:15;1.50;;;1.10;;
59907;SDS011;61804;54.926;73.496;2023-04-25T04:09:49;1.95;;;1.52;;
59907;SDS011;61804;54.926;73.496;2023-04-25T04:12:26;2.85;;;1.25;;
59907;SDS011;61804;54.926;73.496;2023-04-25T04:14:54;5.20;;;1.85;;
59907;SDS011;61804;54.926;73.496;2023-04-25T04:17:32;6.70;;;2.22;;
59907;SDS011;61804;54.926;73.496;2023-04-25T04:20:10;17.70;;;11.50;;
59907;SDS011;61804;54.926;73.496;2023-04-25T04:22:39;2.15;;;1.45;;
59907;SDS011;61804;54.926;73.496;2023-04-25T04:25:10;4.07;;;2.55;;
59907;SDS011;61804;54.926;73.496;2023-04-25T04:28:00;3.15;;;2.35;;
59907;SDS011;61804;54.926;73.496;2023-04-25T04:30:57;1.92;;;1.45;;
59907;SDS011;61804;54.926;73.496;2023-04-25T04:33:25;5.95;;;2.97;;
59907;SDS011;61804;54.926;73.496;2023-04-25T04:36:08;5.82;;;2.20;;
59907;SDS011;61804;54.926;73.496;2023-04-25T04:38:38;3.70;;;2.00;;
59907;SDS011;61804;54.926;73.496;2023-04-25T04:41:06;9.68;;;2.22;;
59907;SDS011;61804;54.926;73.496;2023-04-25T04:43:54;6.28;;;2.67;;
59907;SDS011;61804;54.926;73.496;2023-04-25T04:46:42;1.20;;;1.10;;
59907;SDS011;61804;54.926;73.496;2023-04-25T04:49:43;5.55;;;1.45;;
59907;SDS011;61804;54.926;73.496;2023-04-25T04:52:31;3.20;;;1.58;;
59907;SDS011;61804;54.926;73.496;2023-04-25T04:55:28;3.38;;;2.03;;
59907;SDS011;61804;54.926;73.496;2023-04-25T04:58:18;10.90;;;2.97;;
59907;SDS011;61804;54.926;73.496;2023-04-25T05:00:57;7.38;;;2.60;;
59907;SDS011;61804;54.926;73.496;2023-04-25T05:03:53;1.92;;;1.35;;
59907;SDS011;61804;54.926;73.496;2023-04-25T05:07:03;4.70;;;2.92;;
59907;SDS011;61804;54.926;73.496;2023-04-25T05:10:17;2.47;;;1.75;;
59907;SDS011;61804;54.926;73.496;2023-04-25T05:12:57;5.68;;;2.28;;
59907;SDS011;61804;54.926;73.496;2023-04-25T05:16:05;1.52;;;1.40;;
59907;SDS011;61804;54.926;73.496;2023-04-25T05:18:56;3.47;;;2.35;;
59907;SDS011;61804;54.926;73.496;2023-04-25T05:21:43;7.05;;;6.35;;
59907;SDS011;61804;54.926;73.496;2023-04-25T05:24:29;28.70;;;4.20;;
59907;SDS011;61804;54.926;73.496;2023-04-25T05:27:12;3.95;;;2.63;;
59907;SDS011;61804;54.926;73.496;2023-04-25T05:30:07;16.40;;;3.45;;
59907;SDS011;61804;54.926;73.496;2023-04-25T05:33:00;4.00;;;1.70;;
59907;SDS011;61804;54.926;73.496;2023-04-25T05:35:28;4.03;;;1.80;;
59907;SDS011;61804;54.926;73.496;2023-04-25T05:37:55;6.47;;;2.72;;
59907;SDS011;61804;54.926;73.496;2023-04-25T05:40:35;7.65;;;3.15;;
59907;SDS011;61804;54.926;73.496;2023-04-25T05:43:25;8.98;;;2.60;;
59907;SDS011;61804;54.926;73.496;2023-04-25T05:46:13;7.88;;;2.28;;
59907;SDS011;61804;54.926;73.496;2023-04-25T05:49:11;19.83;;;3.45;;
59907;SDS011;61804;54.926;73.496;2023-04-25T05:51:58;12.93;;;2.90;;
59907;SDS011;61804;54.926;73.496;2023-04-25T05:54:34;9.82;;;1.90;;
59907;SDS011;61804;54.926;73.496;2023-04-25T05:57:03;17.08;;;2.50;;
59907;SDS011;61804;54.926;73.496;2023-04-25T05:59:41;6.35;;;2.90;;
59907;SDS011;61804;54.926;73.496;2023-04-25T06:02:19;17.23;;;3.85;;
59907;SDS011;61804;54.926;73.496;2023-04-25T06:04:51;6.85;;;4.05;;
59907;SDS011;61804;54.926;73.496;2023-04-25T06:07:18;14.52;;;5.28;;
59907;SDS011;61804;54.926;73.496;2023-04-25T06:09:46;6.72;;;3.78;;
59907;SDS011;61804;54.926;73.496;2023-04-25T06:12:15;8.00;;;2.10;;
59907;SDS011;61804;54.926;73.496;2023-04-25T06:14:43;6.93;;;2.25;;
59907;SDS011;61804;54.926;73.496;2023-04-25T06:17:21;3.30;;;2.25;;
59907;SDS011;61804;54.926;73.496;2023-04-25T06:19:50;15.75;;;2.88;;
59907;SDS011;61804;54.926;73.496;2023-04-25T06:22:22;7.25;;;2.50;;
59907;SDS011;61804;54.926;73.496;2023-04-25T06:24:54;4.38;;;2.40;;
59907;SDS011;61804;54.926;73.496;2023-04-25T06:27:35;3.83;;;3.42;;
59907;SDS011;61804;54.926;73.496;2023-04-25T06:30:13;5.80;;;2.13;;
59907;SDS011;61804;54.926;73.496;2023-04-25T06:32:42;11.50;;;5.05;;
59907;SDS011;61804;54.926;73.496;2023-04-25T06:35:10;3.30;;;2.75;;
59907;SDS011;61804;54.926;73.496;2023-04-25T06:37:42;7.88;;;2.67;;
59907;SDS011;61804;54.926;73.496;2023-04-25T06:40:10;12.35;;;3.92;;
59907;SDS011;61804;54.926;73.496;2023-04-25T06:42:47;4.00;;;1.98;;
59907;SDS011;61804;54.926;73.496;2023-04-25T06:45:51;14.75;;;3.97;;
59907;SDS011;61804;54.926;73.496;2023-04-25T06:48:20;4.25;;;2.47;;
59907;SDS011;61804;54.926;73.496;2023-04-25T06:50:57;5.53;;;2.58;;
59907;SDS011;61804;54.926;73.496;2023-04-25T06:53:27;4.85;;;2.35;;
59907;SDS011;61804;54.926;73.496;2023-04-25T06:55:59;2.97;;;2.20;;
59907;SDS011;61804;54.926;73.496;2023-04-25T06:58:44;4.82;;;2.40;;
59907;SDS011;61804;54.926;73.496;2023-04-25T07:01:33;22.10;;;4.47;;
59907;SDS011;61804;54.926;73.496;2023-04-25T07:04:10;7.00;;;2.17;;
59907;SDS011;61804;54.926;73.496;2023-04-25T07:06:43;5.50;;;2.85;;
59907;SDS011;61804;54.926;73.496;2023-04-25T07:09:12;15.02;;;8.20;;
59907;SDS011;61804;54.926;73.496;2023-04-25T07:11:42;8.10;;;2.55;;
59907;SDS011;61804;54.926;73.496;2023-04-25T07:14:09;4.70;;;2.80;;
59907;SDS011;61804;54.926;73.496;2023-04-25T07:16:37;7.65;;;2.65;;
59907;SDS011;61804;54.926;73.496;2023-04-25T07:19:04;10.98;;;2.70;;
59907;SDS011;61804;54.926;73.496;2023-04-25T07:21:31;17.20;;;4.22;;
59907;SDS011;61804;54.926;73.496;2023-04-25T07:24:03;7.00;;;2.92;;
59907;SDS011;61804;54.926;73.496;2023-04-25T07:26:34;25.23;;;5.43;;
59907;SDS011;61804;54.926;73.496;2023-04-25T07:29:17;59.60;;;10.43;;
59907;SDS011;61804;54.926;73.496;2023-04-25T07:31:44;27.30;;;6.22;;
59907;SDS011;61804;54.926;73.496;2023-04-25T07:34:13;6.72;;;1.80;;
59907;SDS011;61804;54.926;73.496;2023-04-25T07:36:41;6.85;;;2.70;;
59907;SDS011;61804;54.926;73.496;2023-04-25T07:39:10;19.92;;;7.75;;
59907;SDS011;61804;54.926;73.496;2023-04-25T07:41:40;9.00;;;3.30;;
59907;SDS011;61804;54.926;73.496;2023-04-25T07:44:13;13.65;;;2.80;;
59907;SDS011;61804;54.926;73.496;2023-04-25T07:46:40;20.70;;;3.45;;
59907;SDS011;61804;54.926;73.496;2023-04-25T07:49:09;16.63;;;3.35;;
59907;SDS011;61804;54.926;73.496;2023-04-25T07:51:37;7.32;;;3.03;;
59907;SDS011;61804;54.926;73.496;2023-04-25T07:54:09;18.08;;;3.97;;
59907;SDS011;61804;54.926;73.496;2023-04-25T07:56:43;67.85;;;43.00;;
59907;SDS011;61804;54.926;73.496;2023-04-25T07:59:10;25.58;;;8.55;;
59907;SDS011;61804;54.926;73.496;2023-04-25T08:01:39;12.70;;;2.80;;
59907;SDS011;61804;54.926;73.496;2023-04-25T08:04:07;53.95;;;8.57;;
59907;SDS011;61804;54.926;73.496;2023-04-25T08:06:50;7.22;;;3.47;;
59907;SDS011;61804;54.926;73.496;2023-04-25T08:09:23;10.50;;;3.00;;
59907;SDS011;61804;54.926;73.496;2023-04-25T08:11:54;16.67;;;3.92;;
59907;SDS011;61804;54.926;73.496;2023-04-25T08:14:32;5.07;;;2.42;;
59907;SDS011;61804;54.926;73.496;2023-04-25T08:17:04;16.75;;;2.63;;
59907;SDS011;61804;54.926;73.496;2023-04-25T08:19:34;10.35;;;3.13;;
59907;SDS011;61804;54.926;73.496;2023-04-25T08:22:03;6.65;;;2.35;;
59907;SDS011;61804;54.926;73.496;2023-04-25T08:24:52;39.17;;;6.68;;
59907;SDS011;61804;54.926;73.496;2023-04-25T08:27:20;44.05;;;7.13;;
59907;SDS011;61804;54.926;73.496;2023-04-25T08:29:47;6.45;;;1.77;;
59907;SDS011;61804;54.926;73.496;2023-04-25T08:32:15;9.80;;;3.05;;
59907;SDS011;61804;54.926;73.496;2023-04-25T08:34:59;16.85;;;3.80;;
59907;SDS011;61804;54.926;73.496;2023-04-25T08:37:31;7.93;;;2.35;;
59907;SDS011;61804;54.926;73.496;2023-04-25T08:40:11;4.10;;;1.73;;
59907;SDS011;61804;54.926;73.496;2023-04-25T08:42:58;6.47;;;2.17;;
59907;SDS011;61804;54.926;73.496;2023-04-25T08:45:28;3.30;;;2.38;;
59907;SDS011;61804;54.926;73.496;2023-04-25T08:47:58;8.23;;;3.00;;
59907;SDS011;61804;54.926;73.496;2023-04-25T08:50:38;7.95;;;2.75;;
59907;SDS011;61804;54.926;73.496;2023-04-25T08:53:12;15.13;;;4.57;;
59907;SDS011;61804;54.926;73.496;2023-04-25T08:58:13;5.53;;;2.53;;
59907;SDS011;61804;54.926;73.496;2023-04-25T09:00:41;20.67;;;5.00;;
59907;SDS011;61804;54.926;73.496;2023-04-25T09:03:09;18.83;;;3.72;;
59907;SDS011;61804;54.926;73.496;2023-04-25T09:05:39;4.60;;;2.05;;
59907;SDS011;61804;54.926;73.496;2023-04-25T09:08:07;5.80;;;2.03;;
59907;SDS011;61804;54.926;73.496;2023-04-25T09:10:36;3.17;;;2.13;;
59907;SDS011;61804;54.926;73.496;2023-04-25T09:13:04;6.57;;;3.20;;
59907;SDS011;61804;54.926;73.496;2023-04-25T09:15:48;15.57;;;3.25;;
59907;SDS011;61804;54.926;73.496;2023-04-25T09:18:31;9.75;;;3.67;;
59907;SDS011;61804;54.926;73.496;2023-04-25T09:21:05;5.72;;;1.95;;
59907;SDS011;61804;54.926;73.496;2023-04-25T09:24:06;5.05;;;2.60;;
59907;SDS011;61804;54.926;73.496;2023-04-25T09:26:28;14.57;;;4.07;;
59907;SDS011;61804;54.926;73.496;2023-04-25T09:29:06;25.42;;;4.05;;
59907;SDS011;61804;54.926;73.496;2023-04-25T09:31:35;13.60;;;4.72;;
59907;SDS011;61804;54.926;73.496;2023-04-25T09:34:11;7.63;;;2.55;;
59907;SDS011;61804;54.926;73.496;2023-04-25T09:36:47;15.63;;;3.90;;
59907;SDS011;61804;54.926;73.496;2023-04-25T09:39:44;8.23;;;3.92;;
59907;SDS011;61804;54.926;73.496;2023-04-25T09:42:24;21.00;;;5.28;;
59907;SDS011;61804;54.926;73.496;2023-04-25T09:44:53;18.80;;;7.68;;
59907;SDS011;61804;54.926;73.496;2023-04-25T09:47:22;10.05;;;6.25;;
59907;SDS011;61804;54.926;73.496;2023-04-25T09:49:51;41.80;;;10.88;;
59907;SDS011;61804;54.926;73.496;2023-04-25T09:52:20;12.50;;;4.97;;
59907;SDS011;61804;54.926;73.496;2023-04-25T09:54:57;24.05;;;7.75;;
59907;SDS011;61804;54.926;73.496;2023-04-25T09:57:30;14.18;;;5.47;;
59907;SDS011;61804;54.926;73.496;2023-04-25T10:00:00;31.42;;;7.85;;
59907;SDS011;61804;54.926;73.496;2023-04-25T10:02:42;12.50;;;3.92;;
59907;SDS011;61804;54.926;73.496;2023-04-25T10:05:13;7.43;;;3.97;;
59907;SDS011;61804;54.926;73.496;2023-04-25T10:07:41;4.95;;;3.20;;
59907;SDS011;61804;54.926;73.496;2023-04-25T10:10:15;14.55;;;4.63;;
59907;SDS011;61804;54.926;73.496;2023-04-25T10:12:43;9.60;;;4.30;;
59907;SDS011;61804;54.926;73.496;2023-04-25T10:15:11;16.10;;;5.57;;
59907;SDS011;61804;54.926;73.496;2023-04-25T10:17:39;4.32;;;2.90;;
59907;SDS011;61804;54.926;73.496;2023-04-25T10:20:08;5.05;;;2.55;;
59907;SDS011;61804;54.926;73.496;2023-04-25T10:22:38;27.38;;;5.53;;
59907;SDS011;61804;54.926;73.496;2023-04-25T10:25:06;5.05;;;2.85;;
59907;SDS011;61804;54.926;73.496;2023-04-25T10:27:35;8.55;;;4.78;;
59907;SDS011;61804;54.926;73.496;2023-04-25T10:30:05;4.72;;;2.38;;
59907;SDS011;61804;54.926;73.496;2023-04-25T10:35:15;20.23;;;11.52;;
59907;SDS011;61804;54.926;73.496;2023-04-25T10:38:00;19.10;;;10.75;;
59907;SDS011;61804;54.926;73.496;2023-04-25T10:40:27;51.25;;;10.60;;
59907;SDS011;61804;54.926;73.496;2023-04-25T10:43:32;7.95;;;3.45;;
59907;SDS011;61804;54.926;73.496;2023-04-25T10:45:53;19.70;;;7.00;;
59907;SDS011;61804;54.926;73.496;2023-04-25T10:48:25;10.15;;;3.55;;
59907;SDS011;61804;54.926;73.496;2023-04-25T10:51:11;16.25;;;4.78;;
59907;SDS011;61804;54.926;73.496;2023-04-25T10:53:39;56.58;;;11.48;;
59907;SDS011;61804;54.926;73.496;2023-04-25T10:56:10;9.27;;;3.47;;
59907;SDS011;61804;54.926;73.496;2023-04-25T10:58:45;19.00;;;6.32;;
59907;SDS011;61804;54.926;73.496;2023-04-25T11:01:21;13.68;;;6.03;;
59907;SDS011;61804;54.926;73.496;2023-04-25T11:03:57;15.93;;;12.15;;
59907;SDS011;61804;54.926;73.496;2023-04-25T11:09:20;6.53;;;4.45;;
59907;SDS011;61804;54.926;73.496;2023-04-25T11:11:54;9.23;;;3.72;;
59907;SDS011;61804;54.926;73.496;2023-04-25T11:14:22;8.77;;;4.38;;
59907;SDS011;61804;54.926;73.496;2023-04-25T11:17:00;3.72;;;2.80;;
59907;SDS011;61804;54.926;73.496;2023-04-25T11:19:28;5.00;;;2.72;;
59907;SDS011;61804;54.926;73.496;2023-04-25T11:21:58;2.33;;;2.15;;
59907;SDS011;61804;54.926;73.496;2023-04-25T11:24:30;9.95;;;3.00;;
59907;SDS011;61804;54.926;73.496;2023-04-25T11:26:57;19.42;;;3.47;;
59907;SDS011;61804;54.926;73.496;2023-04-25T11:29:28;22.10;;;13.18;;
59907;SDS011;61804;54.926;73.496;2023-04-25T11:32:01;8.75;;;5.88;;
59907;SDS011;61804;54.926;73.496;2023-04-25T11:34:34;9.00;;;5.55;;
59907;SDS011;61804;54.926;73.496;2023-04-25T11:37:01;15.32;;;4.70;;
59907;SDS011;61804;54.926;73.496;2023-04-25T11:39:30;19.15;;;7.10;;
59907;SDS011;61804;54.926;73.496;2023-04-25T11:42:07;8.18;;;3.33;;
59907;SDS011;61804;54.926;73.496;2023-04-25T11:44:40;39.58;;;9.52;;
59907;SDS011;61804;54.926;73.496;2023-04-25T11:47:08;4.55;;;1.92;;
59907;SDS011;61804;54.926;73.496;2023-04-25T11:49:46;5.75;;;3.03;;
59907;SDS011;61804;54.926;73.496;2023-04-25T11:52:24;5.80;;;3.03;;
59907;SDS011;61804;54.926;73.496;2023-04-25T11:54:51;15.07;;;4.95;;
59907;SDS011;61804;54.926;73.496;2023-04-25T11:57:19;27.95;;;5.50;;
59907;SDS011;61804;54.926;73.496;2023-04-25T11:59:46;13.35;;;3.55;;
59907;SDS011;61804;54.926;73.496;2023-04-25T12:02:24;29.02;;;6.97;;
59907;SDS011;61804;54.926;73.496;2023-04-25T12:04:52;19.52;;;5.18;;
59907;SDS011;61804;54.926;73.496;2023-04-25T12:07:20;3.80;;;2.35;;
59907;SDS011;61804;54.926;73.496;2023-04-25T12:09:58;12.20;;;3.53;;
59907;SDS011;61804;54.926;73.496;2023-04-25T12:12:32;6.18;;;5.22;;
59907;SDS011;61804;54.926;73.496;2023-04-25T12:15:15;13.50;;;6.50;;
59907;SDS011;61804;54.926;73.496;2023-04-25T12:17:44;16.00;;;4.45;;
59907;SDS011;61804;54.926;73.496;2023-04-25T12:20:14;7.25;;;3.38;;
59907;SDS011;61804;54.926;73.496;2023-04-25T12:22:45;11.30;;;4.03;;
59907;SDS011;61804;54.926;73.496;2023-04-25T12:25:34;10.27;;;4.00;;
59907;SDS011;61804;54.926;73.496;2023-04-25T12:33:21;33.38;;;9.02;;
59907;SDS011;61804;54.926;73.496;2023-04-25T12:35:54;14.48;;;4.35;;
59907;SDS011;61804;54.926;73.496;2023-04-25T12:38:24;8.02;;;4.38;;
59907;SDS011;61804;54.926;73.496;2023-04-25T12:40:53;5.03;;;2.95;;
59907;SDS011;61804;54.926;73.496;2023-04-25T12:43:25;3.67;;;2.63;;
59907;SDS011;61804;54.926;73.496;2023-04-25T12:45:54;5.20;;;2.75;;
59907;SDS011;61804;54.926;73.496;2023-04-25T12:48:22;11.23;;;5.30;;
59907;SDS011;61804;54.926;73.496;2023-04-25T12:50:50;5.75;;;3.40;;
59907;SDS011;61804;54.926;73.496;2023-04-25T12:53:21;11.23;;;2.65;;
59907;SDS011;61804;54.926;73.496;2023-04-25T12:55:54;16.13;;;4.22;;
59907;SDS011;61804;54.926;73.496;2023-04-25T12:58:23;15.90;;;5.38;;
59907;SDS011;61804;54.926;73.496;2023-04-25T13:00:52;8.48;;;4.20;;
59907;SDS011;61804;54.926;73.496;2023-04-25T13:03:20;8.48;;;2.92;;
59907;SDS011;61804;54.926;73.496;2023-04-25T13:05:49;2.38;;;2.15;;
59907;SDS011;61804;54.926;73.496;2023-04-25T13:08:19;14.20;;;5.55;;
59907;SDS011;61804;54.926;73.496;2023-04-25T13:10:51;8.23;;;5.38;;
59907;SDS011;61804;54.926;73.496;2023-04-25T13:13:19;4.50;;;3.70;;
59907;SDS011;61804;54.926;73.496;2023-04-25T13:15:47;3.17;;;2.88;;
59907;SDS011;61804;54.926;73.496;2023-04-25T13:18:19;17.17;;;5.20;;
59907;SDS011;61804;54.926;73.496;2023-04-25T13:20:47;8.43;;;5.32;;
59907;SDS011;61804;54.926;73.496;2023-04-25T13:23:15;8.52;;;3.95;;
59907;SDS011;61804;54.926;73.496;2023-04-25T13:25:42;13.13;;;4.30;;
59907;SDS011;61804;54.926;73.496;2023-04-25T13:28:09;9.27;;;3.92;;
59907;SDS011;61804;54.926;73.496;2023-04-25T13:30:37;9.57;;;4.60;;
59907;SDS011;61804;54.926;73.496;2023-04-25T13:33:05;14.45;;;3.60;;
59907;SDS011;61804;54.926;73.496;2023-04-25T13:35:33;6.00;;;3.97;;
59907;SDS011;61804;54.926;73.496;2023-04-25T13:38:01;4.90;;;4.07;;
59907;SDS011;61804;54.926;73.496;2023-04-25T13:40:28;26.17;;;5.28;;
59907;SDS011;61804;54.926;73.496;2023-04-25T13:42:55;4.45;;;2.50;;
59907;SDS011;61804;54.926;73.496;2023-04-25T13:45:23;6.40;;;2.90;;
59907;SDS011;61804;54.926;73.496;2023-04-25T13:47:50;8.00;;;4.28;;
59907;SDS011;61804;54.926;73.496;2023-04-25T13:50:18;6.15;;;4.35;;
59907;SDS011;61804;54.926;73.496;2023-04-25T13:52:51;10.73;;;6.72;;
59907;SDS011;61804;54.926;73.496;2023-04-25T13:55:18;5.72;;;4.75;;
59907;SDS011;61804;54.926;73.496;2023-04-25T13:57:45;11.05;;;6.35;;
59907;SDS011;61804;54.926;73.496;2023-04-25T14:00:13;20.05;;;7.93;;
59907;SDS011;61804;54.926;73.496;2023-04-25T14:02:41;11.48;;;7.47;;
59907;SDS011;61804;54.926;73.496;2023-04-25T14:05:09;16.58;;;12.35;;
59907;SDS011;61804;54.926;73.496;2023-04-25T14:07:40;23.80;;;19.73;;
59907;SDS011;61804;54.926;73.496;2023-04-25T14:10:08;16.85;;;13.65;;
59907;SDS011;61804;54.926;73.496;2023-04-25T14:12:35;32.78;;;20.27;;
59907;SDS011;61804;54.926;73.496;2023-04-25T14:15:09;61.90;;;25.33;;
59907;SDS011;61804;54.926;73.496;2023-04-25T14:17:37;63.25;;;24.15;;
59907;SDS011;61804;54.926;73.496;2023-04-25T14:20:14;48.63;;;25.85;;
59907;SDS011;61804;54.926;73.496;2023-04-25T14:22:47;58.30;;;23.52;;
59907;SDS011;61804;54.926;73.496;2023-04-25T14:25:14;24.35;;;20.75;;
59907;SDS011;61804;54.926;73.496;2023-04-25T14:27:42;12.88;;;10.02;;
59907;SDS011;61804;54.926;73.496;2023-04-25T14:30:10;15.13;;;9.07;;
59907;SDS011;61804;54.926;73.496;2023-04-25T14:32:38;28.92;;;24.50;;
59907;SDS011;61804;54.926;73.496;2023-04-25T14:35:05;173.95;;;155.43;;
59907;SDS011;61804;54.926;73.496;2023-04-25T14:37:34;28.92;;;23.50;;
59907;SDS011;61804;54.926;73.496;2023-04-25T14:40:01;18.73;;;11.32;;
59907;SDS011;61804;54.926;73.496;2023-04-25T14:42:30;500.38;;;438.90;;
59907;SDS011;61804;54.926;73.496;2023-04-25T14:44:59;428.08;;;332.55;;
59907;SDS011;61804;54.926;73.496;2023-04-25T14:47:27;406.65;;;302.92;;
59907;SDS011;61804;54.926;73.496;2023-04-25T14:49:54;84.43;;;59.05;;
59907;SDS011;61804;54.926;73.496;2023-04-25T14:52:22;48.20;;;33.38;;
59907;SDS011;61804;54.926;73.496;2023-04-25T14:54:49;12.70;;;9.48;;
59907;SDS011;61804;54.926;73.496;2023-04-25T14:57:22;7.53;;;6.47;;
59907;SDS011;61804;54.926;73.496;2023-04-25T14:59:50;11.32;;;8.10;;
59907;SDS011;61804;54.926;73.496;2023-04-25T15:02:18;9.70;;;6.78;;
59907;SDS011;61804;54.926;73.496;2023-04-25T15:04:56;10.10;;;6.55;;
59907;SDS011;61804;54.926;73.496;2023-04-25T15:07:24;13.85;;;7.40;;
59907;SDS011;61804;54.926;73.496;2023-04-25T15:09:51;10.93;;;9.98;;
59907;SDS011;61804;54.926;73.496;2023-04-25T15:12:30;18.40;;;6.97;;
59907;SDS011;61804;54.926;73.496;2023-04-25T15:15:08;14.77;;;8.40;;